CMA27S LFPG-ZSPD
Flight info
| Callsign | CMA27S |
|---|---|
| Flight time | N/A |
| Altitude | 37000 |
| Route | LANVI DCT LUPEN/N0474F390 UM164 UTABA DCT INPUL DCT VATET DCT MOPUG DCT ASNEL DCT UDROS UM859 KARDE/N0489F410 UL851 TBN UM11 REBLO M11 LUSAL N199 RASAM L88 METKA B476 TIMGA A480 OTBOR/K0891F410 N147 ELAHA Z621 ARBOL M610 RULAD/K0889S1250 A343 POSOT B215 FKG W188 LIKMI W270 DKO W69 HUR B339 SOTMU/K0885S1220 W98 ELKUR W40 DOXAB/K0889S1250 W40 YQG/K0885S1220 W142 DALIM/K0889S1250 A593 DPX A470 DALNU W166 ZJ W167 SASAN SAS81A |
| Aircraft | B77L/H-SDE1E2E3FGHIJ2J3J4J5M1RWXY/LB1D1 |
Departure
| Time | N/A |
|---|---|
| Airport | Charles de Gaulle International Airport (LFPG) |
Arrival
| Time | 2026-05-05 23:57 |
|---|---|
| Airport | Shanghai Pudong International Airport (ZSPD) |
| Time | Latitude | Longitude | Altitude | Speed | Heading |
|---|---|---|---|---|---|
| 2026-05-05 20:44 | 42.53157 | 95.63518 | 35102 ft | 504 kts | 151° |
| 2026-05-05 20:45 | 42.47327 | 95.68841 | 35100 ft | 503 kts | 151° |
| 2026-05-05 20:45 | 42.41765 | 95.74490 | 35092 ft | 511 kts | 135° |
| 2026-05-05 20:46 | 42.39740 | 95.78525 | 35111 ft | 520 kts | 118° |
| 2026-05-05 20:46 | 42.38544 | 95.83122 | 35105 ft | 526 kts | 102° |
| 2026-05-05 20:46 | 42.38245 | 95.88061 | 35119 ft | 523 kts | 91° |
| 2026-05-05 20:46 | 42.38186 | 95.92989 | 35116 ft | 525 kts | 91° |
| 2026-05-05 20:47 | 42.38052 | 96.02894 | 35109 ft | 526 kts | 92° |
| 2026-05-05 20:47 | 42.37829 | 96.12726 | 35111 ft | 525 kts | 92° |
| 2026-05-05 20:48 | 42.37544 | 96.22638 | 35115 ft | 525 kts | 93° |
| 2026-05-05 20:48 | 42.37242 | 96.32442 | 35112 ft | 525 kts | 93° |
| 2026-05-05 20:49 | 42.36935 | 96.42321 | 35117 ft | 525 kts | 93° |
| 2026-05-05 20:49 | 42.36623 | 96.52195 | 35111 ft | 525 kts | 93° |
| 2026-05-05 20:50 | 42.36305 | 96.62029 | 35111 ft | 526 kts | 93° |
| 2026-05-05 20:50 | 42.35977 | 96.71912 | 35117 ft | 526 kts | 94° |
| 2026-05-05 20:51 | 42.35639 | 96.81826 | 35109 ft | 526 kts | 94° |
| 2026-05-05 20:51 | 42.35294 | 96.91673 | 35107 ft | 527 kts | 94° |
| 2026-05-05 20:52 | 42.34939 | 97.01581 | 35108 ft | 527 kts | 94° |
| 2026-05-05 20:52 | 42.34577 | 97.11455 | 35106 ft | 528 kts | 94° |
| 2026-05-05 20:53 | 42.34203 | 97.21395 | 35108 ft | 529 kts | 95° |
| 2026-05-05 20:53 | 42.33821 | 97.31343 | 35101 ft | 529 kts | 95° |
| 2026-05-05 20:54 | 42.33429 | 97.41293 | 35106 ft | 530 kts | 95° |
| 2026-05-05 20:54 | 42.33032 | 97.51192 | 35096 ft | 531 kts | 95° |
| 2026-05-05 20:55 | 42.32622 | 97.61169 | 35103 ft | 532 kts | 95° |
| 2026-05-05 20:55 | 42.32204 | 97.71154 | 35089 ft | 532 kts | 96° |
| 2026-05-05 20:56 | 42.31776 | 97.81147 | 35089 ft | 533 kts | 96° |
| 2026-05-05 20:56 | 42.31340 | 97.91153 | 35091 ft | 533 kts | 96° |
| 2026-05-05 20:57 | 42.30895 | 98.01134 | 35082 ft | 534 kts | 96° |
| 2026-05-05 20:57 | 42.30440 | 98.11159 | 35083 ft | 534 kts | 96° |
| 2026-05-05 20:58 | 42.29977 | 98.21164 | 35082 ft | 534 kts | 96° |
| 2026-05-05 20:58 | 42.29505 | 98.31205 | 35082 ft | 535 kts | 97° |
| 2026-05-05 20:59 | 42.29007 | 98.41195 | 35076 ft | 535 kts | 97° |
| 2026-05-05 20:59 | 42.28481 | 98.51265 | 35079 ft | 536 kts | 97° |
| 2026-05-05 21:00 | 42.27952 | 98.61268 | 35082 ft | 537 kts | 97° |
| 2026-05-05 21:00 | 42.27413 | 98.71349 | 35074 ft | 538 kts | 97° |
| 2026-05-05 21:01 | 42.26869 | 98.81394 | 35067 ft | 539 kts | 98° |
| 2026-05-05 21:01 | 42.26312 | 98.91508 | 35077 ft | 540 kts | 98° |
| 2026-05-05 21:02 | 42.25746 | 99.01616 | 35074 ft | 540 kts | 98° |
| 2026-05-05 21:02 | 42.25170 | 99.11742 | 35067 ft | 541 kts | 98° |
| 2026-05-05 21:03 | 42.24588 | 99.21810 | 35068 ft | 541 kts | 98° |
| 2026-05-05 21:03 | 42.23994 | 99.31947 | 35071 ft | 542 kts | 98° |
| 2026-05-05 21:04 | 42.23391 | 99.42074 | 35066 ft | 542 kts | 98° |
| 2026-05-05 21:04 | 42.22776 | 99.52238 | 35059 ft | 542 kts | 98° |
| 2026-05-05 21:05 | 42.22156 | 99.62353 | 35066 ft | 542 kts | 98° |
| 2026-05-05 21:05 | 42.21527 | 99.72451 | 35059 ft | 543 kts | 98° |
| 2026-05-05 21:06 | 42.20885 | 99.82620 | 35056 ft | 543 kts | 98° |
| 2026-05-05 21:06 | 42.20234 | 99.92791 | 35062 ft | 543 kts | 98° |
| 2026-05-05 21:07 | 42.19577 | 100.02924 | 35061 ft | 544 kts | 98° |
| 2026-05-05 21:07 | 42.18910 | 100.13061 | 35051 ft | 544 kts | 98° |
| 2026-05-05 21:08 | 42.18231 | 100.23246 | 35055 ft | 544 kts | 98° |
| 2026-05-05 21:08 | 42.17545 | 100.33391 | 35054 ft | 544 kts | 98° |
| 2026-05-05 21:09 | 42.16853 | 100.43498 | 35055 ft | 544 kts | 99° |
| 2026-05-05 21:09 | 42.16148 | 100.53655 | 35052 ft | 544 kts | 99° |
| 2026-05-05 21:10 | 42.15434 | 100.63815 | 35053 ft | 543 kts | 99° |
| 2026-05-05 21:10 | 42.14713 | 100.73949 | 35053 ft | 543 kts | 99° |
| 2026-05-05 21:11 | 42.13988 | 100.84018 | 35055 ft | 543 kts | 99° |
| 2026-05-05 21:11 | 42.13251 | 100.94140 | 35054 ft | 542 kts | 99° |
| 2026-05-05 21:12 | 42.12262 | 101.04213 | 35059 ft | 539 kts | 106° |
| 2026-05-05 21:12 | 42.10142 | 101.13830 | 35058 ft | 534 kts | 115° |
| 2026-05-05 21:13 | 42.07616 | 101.23180 | 35056 ft | 534 kts | 115° |
| 2026-05-05 21:13 | 42.05096 | 101.32574 | 35054 ft | 534 kts | 115° |
| 2026-05-05 21:14 | 42.02603 | 101.42000 | 35050 ft | 534 kts | 114° |
| 2026-05-05 21:14 | 42.00110 | 101.51447 | 35055 ft | 535 kts | 114° |
| 2026-05-05 21:15 | 41.97626 | 101.60821 | 35059 ft | 535 kts | 115° |
| 2026-05-05 21:15 | 41.95119 | 101.70231 | 35059 ft | 535 kts | 115° |
| 2026-05-05 21:16 | 41.92590 | 101.79683 | 35061 ft | 536 kts | 115° |
| 2026-05-05 21:16 | 41.90065 | 101.89084 | 35059 ft | 536 kts | 115° |
| 2026-05-05 21:17 | 41.87532 | 101.98480 | 35067 ft | 536 kts | 115° |
| 2026-05-05 21:17 | 41.84997 | 102.07851 | 35067 ft | 536 kts | 115° |
| 2026-05-05 21:18 | 41.82447 | 102.17239 | 35068 ft | 537 kts | 115° |
| 2026-05-05 21:18 | 41.79884 | 102.26638 | 35065 ft | 537 kts | 115° |
| 2026-05-05 21:19 | 41.77323 | 102.35996 | 35071 ft | 536 kts | 115° |
| 2026-05-05 21:19 | 41.74749 | 102.45368 | 35073 ft | 536 kts | 115° |
| 2026-05-05 21:20 | 41.72155 | 102.54774 | 35075 ft | 536 kts | 116° |
| 2026-05-05 21:20 | 41.69578 | 102.64093 | 35071 ft | 536 kts | 116° |
| 2026-05-05 21:21 | 41.66987 | 102.73418 | 35072 ft | 536 kts | 116° |
| 2026-05-05 21:21 | 41.64379 | 102.82761 | 35074 ft | 536 kts | 116° |
| 2026-05-05 21:22 | 41.61761 | 102.92112 | 35073 ft | 535 kts | 116° |
| 2026-05-05 21:22 | 41.59154 | 103.01392 | 35074 ft | 535 kts | 116° |
| 2026-05-05 21:23 | 41.56516 | 103.10707 | 35077 ft | 535 kts | 116° |
| 2026-05-05 21:23 | 41.53874 | 103.19994 | 35074 ft | 535 kts | 116° |
| 2026-05-05 21:24 | 41.51227 | 103.29274 | 35075 ft | 535 kts | 116° |
| 2026-05-05 21:24 | 41.48581 | 103.38525 | 35070 ft | 535 kts | 116° |
| 2026-05-05 21:25 | 41.45923 | 103.47781 | 35078 ft | 535 kts | 117° |
| 2026-05-05 21:25 | 41.43248 | 103.57065 | 35071 ft | 536 kts | 117° |
| 2026-05-05 21:26 | 41.40569 | 103.66327 | 35075 ft | 536 kts | 117° |
| 2026-05-05 21:26 | 41.37890 | 103.75557 | 35071 ft | 537 kts | 117° |
| 2026-05-05 21:27 | 41.35184 | 103.84847 | 35069 ft | 537 kts | 117° |
| 2026-05-05 21:27 | 41.32477 | 103.94107 | 35068 ft | 537 kts | 117° |
| 2026-05-05 21:28 | 41.29760 | 104.03368 | 35081 ft | 537 kts | 117° |
| 2026-05-05 21:28 | 41.27044 | 104.12594 | 35057 ft | 537 kts | 117° |
| 2026-05-05 21:29 | 41.24325 | 104.21796 | 35072 ft | 538 kts | 117° |
| 2026-05-05 21:29 | 41.21584 | 104.31040 | 35067 ft | 538 kts | 117° |
| 2026-05-05 21:30 | 41.18833 | 104.40288 | 35060 ft | 538 kts | 117° |
| 2026-05-05 21:30 | 41.16532 | 104.47999 | 35060 ft | 538 kts | 118° |
| 2026-05-05 21:31 | 41.13755 | 104.57271 | 35060 ft | 539 kts | 118° |
| 2026-05-05 21:31 | 41.10997 | 104.66455 | 35056 ft | 539 kts | 118° |
| 2026-05-05 21:32 | 41.08141 | 104.75668 | 35062 ft | 538 kts | 120° |
| 2026-05-05 21:32 | 41.05061 | 104.84712 | 35055 ft | 538 kts | 121° |
| 2026-05-05 21:33 | 41.01952 | 104.93698 | 35053 ft | 538 kts | 121° |
| 2026-05-05 21:33 | 40.98855 | 105.02749 | 35048 ft | 539 kts | 121° |
| 2026-05-05 21:34 | 40.95773 | 105.11807 | 35042 ft | 539 kts | 121° |
| 2026-05-05 21:34 | 40.92699 | 105.20826 | 35039 ft | 540 kts | 121° |
| 2026-05-05 21:35 | 40.89596 | 105.29893 | 35035 ft | 540 kts | 121° |
| 2026-05-05 21:35 | 40.86507 | 105.38881 | 35030 ft | 540 kts | 121° |
| 2026-05-05 21:36 | 40.83390 | 105.47921 | 35030 ft | 540 kts | 121° |
| 2026-05-05 21:36 | 40.80264 | 105.56958 | 35022 ft | 541 kts | 121° |
| 2026-05-05 21:37 | 40.77144 | 105.65948 | 35019 ft | 541 kts | 121° |
| 2026-05-05 21:37 | 40.74000 | 105.74983 | 35014 ft | 541 kts | 121° |
| 2026-05-05 21:38 | 40.70839 | 105.84032 | 35005 ft | 541 kts | 121° |
| 2026-05-05 21:38 | 40.67693 | 105.93014 | 34997 ft | 541 kts | 121° |
| 2026-05-05 21:39 | 40.64527 | 106.02026 | 34990 ft | 542 kts | 122° |
| 2026-05-05 21:39 | 40.61366 | 106.10991 | 34986 ft | 542 kts | 122° |
| 2026-05-05 21:40 | 40.58196 | 106.19956 | 34976 ft | 542 kts | 122° |
| 2026-05-05 21:40 | 40.54999 | 106.28969 | 34968 ft | 542 kts | 122° |
| 2026-05-05 21:41 | 40.51803 | 106.37950 | 34965 ft | 542 kts | 122° |
| 2026-05-05 21:41 | 40.48599 | 106.46927 | 34963 ft | 543 kts | 122° |
| 2026-05-05 21:42 | 40.45394 | 106.55880 | 34969 ft | 543 kts | 122° |
| 2026-05-05 21:42 | 40.42185 | 106.64814 | 34967 ft | 543 kts | 122° |
| 2026-05-05 21:43 | 40.38940 | 106.73821 | 34960 ft | 543 kts | 122° |
| 2026-05-05 21:43 | 40.35725 | 106.82722 | 34961 ft | 543 kts | 122° |
| 2026-05-05 21:44 | 40.32663 | 106.91789 | 34951 ft | 550 kts | 112° |
| 2026-05-05 21:44 | 40.31813 | 106.96714 | 34963 ft | 558 kts | 101° |
| 2026-05-05 21:44 | 40.31529 | 107.01829 | 34964 ft | 561 kts | 91° |
| 2026-05-05 21:45 | 40.32526 | 107.11935 | 34975 ft | 562 kts | 80° |
| 2026-05-05 21:45 | 40.33950 | 107.22011 | 34975 ft | 563 kts | 80° |
| 2026-05-05 21:46 | 40.35288 | 107.32136 | 34961 ft | 563 kts | 81° |
| 2026-05-05 21:46 | 40.36536 | 107.42290 | 34968 ft | 563 kts | 81° |
| 2026-05-05 21:47 | 40.37754 | 107.52386 | 34964 ft | 564 kts | 81° |
| 2026-05-05 21:47 | 40.38980 | 107.62539 | 34964 ft | 564 kts | 81° |
| 2026-05-05 21:48 | 40.40204 | 107.72701 | 34958 ft | 564 kts | 81° |
| 2026-05-05 21:48 | 40.41421 | 107.82892 | 34956 ft | 564 kts | 81° |
| 2026-05-05 21:49 | 40.42627 | 107.93073 | 34959 ft | 565 kts | 81° |
| 2026-05-05 21:49 | 40.43823 | 108.03279 | 34962 ft | 566 kts | 82° |
| 2026-05-05 21:50 | 40.44991 | 108.13422 | 34951 ft | 566 kts | 82° |
| 2026-05-05 21:50 | 40.46159 | 108.23658 | 34950 ft | 566 kts | 82° |
| 2026-05-05 21:51 | 40.47322 | 108.33894 | 34947 ft | 567 kts | 82° |
| 2026-05-05 21:51 | 40.48477 | 108.44147 | 34946 ft | 567 kts | 82° |
| 2026-05-05 21:52 | 40.50185 | 108.59483 | 34937 ft | 568 kts | 82° |
| 2026-05-05 21:53 | 40.51319 | 108.69774 | 34932 ft | 568 kts | 82° |
| 2026-05-05 21:53 | 40.52439 | 108.80021 | 34924 ft | 569 kts | 82° |
| 2026-05-05 21:54 | 40.53557 | 108.90334 | 34922 ft | 569 kts | 82° |
| 2026-05-05 21:54 | 40.54666 | 109.00645 | 34923 ft | 569 kts | 82° |
| 2026-05-05 21:55 | 40.55757 | 109.10888 | 34925 ft | 570 kts | 82° |
| 2026-05-05 21:55 | 40.56852 | 109.21246 | 34924 ft | 570 kts | 82° |
| 2026-05-05 21:56 | 40.57928 | 109.31527 | 34923 ft | 570 kts | 82° |
| 2026-05-05 21:56 | 40.59005 | 109.41890 | 34925 ft | 571 kts | 82° |
| 2026-05-05 21:57 | 40.60072 | 109.52248 | 34920 ft | 571 kts | 82° |
| 2026-05-05 21:57 | 40.61129 | 109.62623 | 34923 ft | 572 kts | 82° |
| 2026-05-05 21:58 | 40.62175 | 109.73004 | 34918 ft | 572 kts | 82° |
| 2026-05-05 21:58 | 40.63213 | 109.83346 | 34911 ft | 573 kts | 82° |
| 2026-05-05 21:59 | 40.64248 | 109.93786 | 34913 ft | 573 kts | 82° |
| 2026-05-05 21:59 | 40.64805 | 110.04184 | 34909 ft | 573 kts | 91° |
| 2026-05-05 22:00 | 40.64683 | 110.14695 | 34903 ft | 574 kts | 92° |
| 2026-05-05 22:00 | 40.64548 | 110.25212 | 34888 ft | 574 kts | 91° |
| 2026-05-05 22:01 | 40.64476 | 110.35680 | 34895 ft | 574 kts | 91° |
| 2026-05-05 22:01 | 40.64401 | 110.46250 | 34896 ft | 576 kts | 91° |
| 2026-05-05 22:02 | 40.64312 | 110.56756 | 34894 ft | 575 kts | 91° |
| 2026-05-05 22:02 | 40.64211 | 110.67273 | 34899 ft | 573 kts | 91° |
| 2026-05-05 22:03 | 40.64104 | 110.77773 | 34889 ft | 573 kts | 91° |
| 2026-05-05 22:03 | 40.63990 | 110.88205 | 34892 ft | 572 kts | 91° |
| 2026-05-05 22:04 | 40.63861 | 110.98699 | 34879 ft | 572 kts | 91° |
| 2026-05-05 22:04 | 40.63726 | 111.09158 | 34875 ft | 571 kts | 90° |
| 2026-05-05 22:05 | 40.63583 | 111.19603 | 34883 ft | 570 kts | 91° |
| 2026-05-05 22:05 | 40.63430 | 111.30040 | 34879 ft | 569 kts | 91° |
| 2026-05-05 22:06 | 40.63269 | 111.40462 | 34872 ft | 569 kts | 91° |
| 2026-05-05 22:06 | 40.63101 | 111.50866 | 34870 ft | 568 kts | 91° |
| 2026-05-05 22:07 | 40.62924 | 111.61189 | 34876 ft | 567 kts | 91° |
| 2026-05-05 22:07 | 40.62735 | 111.71574 | 34879 ft | 566 kts | 91° |
| 2026-05-05 22:08 | 40.62539 | 111.81933 | 34887 ft | 565 kts | 91° |
| 2026-05-05 22:08 | 40.62357 | 111.92207 | 34901 ft | 564 kts | 89° |
| 2026-05-05 22:09 | 40.62185 | 112.02541 | 34899 ft | 564 kts | 91° |
| 2026-05-05 22:09 | 40.61878 | 112.12844 | 34894 ft | 563 kts | 91° |
| 2026-05-05 22:10 | 40.61649 | 112.23147 | 34910 ft | 562 kts | 91° |
| 2026-05-05 22:10 | 40.61415 | 112.33369 | 34906 ft | 560 kts | 91° |
| 2026-05-05 22:11 | 40.61157 | 112.43656 | 34915 ft | 560 kts | 91° |
| 2026-05-05 22:11 | 40.60871 | 112.53845 | 34905 ft | 560 kts | 92° |
| 2026-05-05 22:12 | 40.60261 | 112.64054 | 34920 ft | 559 kts | 95° |
| 2026-05-05 22:12 | 40.59622 | 112.74247 | 34909 ft | 557 kts | 94° |
| 2026-05-05 22:13 | 40.58814 | 112.84379 | 34921 ft | 557 kts | 96° |
| 2026-05-05 22:13 | 40.58104 | 112.94471 | 34912 ft | 556 kts | 94° |
| 2026-05-05 22:14 | 40.57463 | 113.04591 | 34911 ft | 554 kts | 94° |
| 2026-05-05 22:14 | 40.56800 | 113.14677 | 34911 ft | 552 kts | 95° |
| 2026-05-05 22:15 | 40.56108 | 113.24753 | 34912 ft | 551 kts | 95° |
| 2026-05-05 22:15 | 40.55408 | 113.34741 | 34906 ft | 551 kts | 95° |
| 2026-05-05 22:16 | 40.54697 | 113.44776 | 34905 ft | 550 kts | 95° |
| 2026-05-05 22:16 | 40.53981 | 113.54786 | 34904 ft | 549 kts | 95° |
| 2026-05-05 22:17 | 40.53257 | 113.64797 | 34881 ft | 549 kts | 95° |
| 2026-05-05 22:17 | 40.52526 | 113.74773 | 34898 ft | 548 kts | 95° |
| 2026-05-05 22:18 | 40.51911 | 113.83076 | 34868 ft | 547 kts | 95° |
| 2026-05-05 22:18 | 40.51045 | 113.94651 | 34866 ft | 546 kts | 95° |
| 2026-05-05 22:19 | 40.50449 | 114.02904 | 34861 ft | 545 kts | 94° |
| 2026-05-05 22:19 | 40.49960 | 114.14478 | 34883 ft | 544 kts | 91° |
| 2026-05-05 22:20 | 40.49669 | 114.22805 | 34862 ft | 544 kts | 91° |
| 2026-05-05 22:20 | 40.49272 | 114.32676 | 34855 ft | 543 kts | 92° |
| 2026-05-05 22:21 | 40.48830 | 114.42556 | 34846 ft | 542 kts | 92° |
| 2026-05-05 22:21 | 40.48373 | 114.52446 | 34848 ft | 541 kts | 92° |
| 2026-05-05 22:22 | 40.47912 | 114.62329 | 34845 ft | 541 kts | 92° |
| 2026-05-05 22:22 | 40.47447 | 114.72145 | 34842 ft | 540 kts | 92° |
| 2026-05-05 22:23 | 40.46974 | 114.82003 | 34817 ft | 540 kts | 92° |
| 2026-05-05 22:23 | 40.46496 | 114.91854 | 34818 ft | 539 kts | 92° |
| 2026-05-05 22:24 | 40.46005 | 115.01684 | 34770 ft | 539 kts | 92° |
| 2026-05-05 22:24 | 40.45497 | 115.11603 | 34798 ft | 556 kts | 92° |
| 2026-05-05 22:25 | 40.44966 | 115.21896 | 34800 ft | 567 kts | 92° |
| 2026-05-05 22:25 | 40.44422 | 115.32261 | 34801 ft | 568 kts | 92° |
| 2026-05-05 22:26 | 40.43874 | 115.42517 | 34785 ft | 566 kts | 92° |
| 2026-05-05 22:26 | 40.43315 | 115.52837 | 34783 ft | 566 kts | 92° |
| 2026-05-05 22:27 | 40.42590 | 115.63130 | 34777 ft | 566 kts | 95° |
| 2026-05-05 22:27 | 40.41706 | 115.73410 | 34760 ft | 565 kts | 95° |
| 2026-05-05 22:28 | 40.40831 | 115.83662 | 34783 ft | 566 kts | 95° |
| 2026-05-05 22:28 | 40.39979 | 115.93951 | 34779 ft | 566 kts | 95° |
| 2026-05-05 22:29 | 40.39136 | 116.04139 | 34762 ft | 566 kts | 95° |
| 2026-05-05 22:29 | 40.38270 | 116.14453 | 34883 ft | 571 kts | 95° |
| 2026-05-05 22:29 | 40.37829 | 116.19660 | 35238 ft | 572 kts | 95° |
| 2026-05-05 22:30 | 40.37387 | 116.24840 | 35716 ft | 570 kts | 95° |
| 2026-05-05 22:30 | 40.36950 | 116.29943 | 36197 ft | 568 kts | 95° |
| 2026-05-05 22:30 | 40.36508 | 116.35086 | 36629 ft | 566 kts | 94° |
| 2026-05-05 22:30 | 40.36059 | 116.40244 | 36983 ft | 567 kts | 94° |
| 2026-05-05 22:31 | 40.35614 | 116.45316 | 37328 ft | 567 kts | 94° |
| 2026-05-05 22:31 | 40.35164 | 116.50458 | 37704 ft | 567 kts | 94° |
| 2026-05-05 22:31 | 40.34709 | 116.55627 | 38081 ft | 566 kts | 94° |
| 2026-05-05 22:31 | 40.34195 | 116.60688 | 38387 ft | 566 kts | 101° |
| 2026-05-05 22:32 | 40.32925 | 116.65582 | 38510 ft | 569 kts | 120° |
| 2026-05-05 22:32 | 40.30738 | 116.69853 | 38656 ft | 561 kts | 137° |
| 2026-05-05 22:32 | 40.27872 | 116.73233 | 38700 ft | 548 kts | 152° |
| 2026-05-05 22:32 | 40.24621 | 116.75770 | 38725 ft | 537 kts | 163° |
| 2026-05-05 22:33 | 40.21204 | 116.77409 | 38710 ft | 519 kts | 179° |
| 2026-05-05 22:33 | 40.14161 | 116.78712 | 38716 ft | 510 kts | 183° |
| 2026-05-05 22:34 | 40.07096 | 116.79970 | 38720 ft | 512 kts | 182° |
| 2026-05-05 22:34 | 40.00095 | 116.81353 | 38717 ft | 512 kts | 181° |
| 2026-05-05 22:35 | 39.93057 | 116.82778 | 38717 ft | 512 kts | 181° |
| 2026-05-05 22:35 | 39.85989 | 116.84192 | 38720 ft | 513 kts | 181° |
| 2026-05-05 22:36 | 39.78961 | 116.84978 | 38724 ft | 499 kts | 191° |
| 2026-05-05 22:36 | 39.72170 | 116.84241 | 38723 ft | 489 kts | 198° |
| 2026-05-05 22:37 | 39.65391 | 116.83047 | 38717 ft | 490 kts | 198° |
| 2026-05-05 22:37 | 39.58669 | 116.81894 | 38707 ft | 491 kts | 198° |
| 2026-05-05 22:38 | 39.51887 | 116.80769 | 38699 ft | 491 kts | 198° |
| 2026-05-05 22:38 | 39.45095 | 116.79657 | 38711 ft | 491 kts | 198° |
| 2026-05-05 22:39 | 39.38357 | 116.78555 | 38711 ft | 491 kts | 198° |
| 2026-05-05 22:39 | 39.31581 | 116.77446 | 38710 ft | 491 kts | 197° |
| 2026-05-05 22:40 | 39.24791 | 116.76337 | 38712 ft | 491 kts | 197° |
| 2026-05-05 22:40 | 39.18004 | 116.75230 | 38710 ft | 491 kts | 197° |
| 2026-05-05 22:41 | 39.11262 | 116.74132 | 38707 ft | 491 kts | 197° |
| 2026-05-05 22:41 | 39.04471 | 116.73029 | 38709 ft | 492 kts | 197° |
| 2026-05-05 22:42 | 38.97677 | 116.71929 | 38708 ft | 492 kts | 197° |
| 2026-05-05 22:42 | 38.90875 | 116.70831 | 38707 ft | 492 kts | 197° |
| 2026-05-05 22:43 | 38.84083 | 116.69733 | 38709 ft | 492 kts | 197° |
| 2026-05-05 22:43 | 38.77329 | 116.68643 | 38708 ft | 492 kts | 197° |
| 2026-05-05 22:44 | 38.70536 | 116.67550 | 38708 ft | 492 kts | 197° |
| 2026-05-05 22:44 | 38.63735 | 116.66458 | 38711 ft | 493 kts | 197° |
| 2026-05-05 22:45 | 38.56881 | 116.65598 | 38708 ft | 496 kts | 194° |
| 2026-05-05 22:45 | 38.49992 | 116.64876 | 38709 ft | 496 kts | 194° |
| 2026-05-05 22:46 | 38.43116 | 116.64108 | 38710 ft | 496 kts | 194° |
| 2026-05-05 22:46 | 38.36288 | 116.63322 | 38702 ft | 496 kts | 194° |
| 2026-05-05 22:47 | 38.29303 | 116.63182 | 38705 ft | 510 kts | 183° |
| 2026-05-05 22:47 | 38.22281 | 116.64843 | 38702 ft | 521 kts | 171° |
| 2026-05-05 22:48 | 38.15333 | 116.67579 | 38714 ft | 522 kts | 170° |
| 2026-05-05 22:48 | 38.08365 | 116.70200 | 38723 ft | 522 kts | 171° |
| 2026-05-05 22:49 | 38.01394 | 116.72845 | 38721 ft | 522 kts | 170° |
| 2026-05-05 22:49 | 37.94449 | 116.75508 | 38721 ft | 523 kts | 170° |
| 2026-05-05 22:50 | 37.87465 | 116.78175 | 38718 ft | 523 kts | 170° |
| 2026-05-05 22:50 | 37.80533 | 116.80809 | 38725 ft | 523 kts | 170° |
| 2026-05-05 22:51 | 37.73544 | 116.83457 | 38733 ft | 523 kts | 170° |
| 2026-05-05 22:51 | 37.66576 | 116.86093 | 38732 ft | 523 kts | 169° |
| 2026-05-05 22:52 | 37.59608 | 116.88725 | 38740 ft | 523 kts | 169° |
| 2026-05-05 22:52 | 37.52612 | 116.91361 | 38737 ft | 524 kts | 169° |
| 2026-05-05 22:53 | 37.45624 | 116.93990 | 38738 ft | 524 kts | 169° |
| 2026-05-05 22:53 | 37.38665 | 116.96603 | 38743 ft | 524 kts | 169° |
| 2026-05-05 22:54 | 37.31653 | 116.99231 | 38745 ft | 524 kts | 169° |
| 2026-05-05 22:54 | 37.24769 | 117.02163 | 38737 ft | 528 kts | 165° |
| 2026-05-05 22:55 | 37.17888 | 117.05423 | 38748 ft | 527 kts | 165° |
| 2026-05-05 22:55 | 37.11019 | 117.08648 | 38757 ft | 527 kts | 165° |
| 2026-05-05 22:56 | 37.04157 | 117.11850 | 38758 ft | 528 kts | 165° |
| 2026-05-05 22:56 | 36.97258 | 117.15065 | 38762 ft | 528 kts | 165° |
| 2026-05-05 22:57 | 36.90366 | 117.18272 | 38771 ft | 528 kts | 165° |
| 2026-05-05 22:57 | 36.83372 | 117.20771 | 38776 ft | 519 kts | 176° |
| 2026-05-05 22:58 | 36.76256 | 117.21680 | 38776 ft | 510 kts | 187° |
| 2026-05-05 22:58 | 36.69147 | 117.21567 | 38791 ft | 510 kts | 188° |
| 2026-05-05 22:59 | 36.62045 | 117.21445 | 38790 ft | 511 kts | 187° |
| 2026-05-05 22:59 | 36.54959 | 117.21391 | 38798 ft | 511 kts | 187° |
| 2026-05-05 23:00 | 36.44323 | 117.21455 | 38814 ft | 515 kts | 181° |
| 2026-05-05 23:00 | 36.37182 | 117.22892 | 38818 ft | 524 kts | 170° |
| 2026-05-05 23:01 | 36.30216 | 117.25509 | 38826 ft | 524 kts | 167° |
| 2026-05-05 23:01 | 36.23238 | 117.28206 | 38836 ft | 525 kts | 168° |
| 2026-05-05 23:02 | 36.16243 | 117.30829 | 38838 ft | 524 kts | 168° |
| 2026-05-05 23:02 | 36.09258 | 117.33411 | 38838 ft | 524 kts | 168° |
| 2026-05-05 23:03 | 36.02305 | 117.35983 | 38844 ft | 523 kts | 168° |
| 2026-05-05 23:03 | 35.95307 | 117.38585 | 38848 ft | 523 kts | 168° |
| 2026-05-05 23:04 | 35.88345 | 117.41195 | 38849 ft | 523 kts | 168° |
| 2026-05-05 23:04 | 35.81413 | 117.43795 | 38853 ft | 523 kts | 168° |
| 2026-05-05 23:05 | 35.74447 | 117.46398 | 38856 ft | 523 kts | 168° |
| 2026-05-05 23:05 | 35.67496 | 117.48989 | 38863 ft | 523 kts | 168° |
| 2026-05-05 23:06 | 35.60502 | 117.51591 | 38863 ft | 523 kts | 168° |
| 2026-05-05 23:06 | 35.53563 | 117.54168 | 38869 ft | 523 kts | 168° |
| 2026-05-05 23:07 | 35.46580 | 117.56758 | 38868 ft | 523 kts | 168° |
| 2026-05-05 23:07 | 35.39622 | 117.59332 | 38875 ft | 523 kts | 168° |
| 2026-05-05 23:08 | 35.32635 | 117.61910 | 38874 ft | 523 kts | 168° |
| 2026-05-05 23:08 | 35.25706 | 117.64461 | 38882 ft | 523 kts | 168° |
| 2026-05-05 23:09 | 35.18704 | 117.67037 | 38882 ft | 523 kts | 168° |
| 2026-05-05 23:09 | 35.11765 | 117.69589 | 38889 ft | 523 kts | 168° |
| 2026-05-05 23:10 | 35.05963 | 117.71716 | 38888 ft | 523 kts | 168° |
| 2026-05-05 23:10 | 34.98956 | 117.74271 | 38886 ft | 523 kts | 168° |
| 2026-05-05 23:11 | 34.91991 | 117.76804 | 38896 ft | 523 kts | 168° |
| 2026-05-05 23:11 | 34.85026 | 117.79336 | 38893 ft | 523 kts | 168° |
| 2026-05-05 23:12 | 34.78065 | 117.81823 | 38891 ft | 523 kts | 168° |
| 2026-05-05 23:12 | 34.71067 | 117.84333 | 38895 ft | 523 kts | 168° |
| 2026-05-05 23:13 | 34.64091 | 117.86840 | 38901 ft | 523 kts | 168° |
| 2026-05-05 23:13 | 34.57109 | 117.89345 | 38891 ft | 524 kts | 168° |
| 2026-05-05 23:14 | 34.50093 | 117.91858 | 38899 ft | 524 kts | 168° |
| 2026-05-05 23:14 | 34.43101 | 117.94355 | 38892 ft | 524 kts | 168° |
| 2026-05-05 23:15 | 34.36142 | 117.96834 | 38895 ft | 524 kts | 168° |
| 2026-05-05 23:15 | 34.29141 | 117.99322 | 38896 ft | 524 kts | 168° |
| 2026-05-05 23:16 | 34.22143 | 118.01852 | 38902 ft | 525 kts | 167° |
| 2026-05-05 23:16 | 34.15138 | 118.04431 | 38909 ft | 525 kts | 167° |
| 2026-05-05 23:17 | 34.08152 | 118.06991 | 38909 ft | 525 kts | 167° |
| 2026-05-05 23:17 | 34.01137 | 118.09550 | 38911 ft | 525 kts | 167° |
| 2026-05-05 23:18 | 33.94140 | 118.12109 | 38907 ft | 526 kts | 167° |
| 2026-05-05 23:18 | 33.87178 | 118.14655 | 38909 ft | 526 kts | 167° |
| 2026-05-05 23:19 | 33.80362 | 118.17971 | 38916 ft | 532 kts | 155° |
| 2026-05-05 23:19 | 33.74041 | 118.22640 | 38915 ft | 534 kts | 147° |
| 2026-05-05 23:20 | 33.67947 | 118.27803 | 38917 ft | 535 kts | 146° |
| 2026-05-05 23:20 | 33.61892 | 118.32907 | 38916 ft | 535 kts | 147° |
| 2026-05-05 23:21 | 33.55773 | 118.37985 | 38917 ft | 536 kts | 147° |
| 2026-05-05 23:21 | 33.49626 | 118.43055 | 38919 ft | 536 kts | 147° |
| 2026-05-05 23:22 | 33.43487 | 118.48113 | 38924 ft | 536 kts | 147° |
| 2026-05-05 23:22 | 33.37310 | 118.53195 | 38925 ft | 537 kts | 147° |
| 2026-05-05 23:23 | 33.31194 | 118.58222 | 38926 ft | 537 kts | 147° |
| 2026-05-05 23:23 | 33.25032 | 118.63277 | 38932 ft | 537 kts | 147° |
| 2026-05-05 23:24 | 33.18884 | 118.68320 | 38934 ft | 537 kts | 146° |
| 2026-05-05 23:24 | 33.12752 | 118.73413 | 38932 ft | 537 kts | 146° |
| 2026-05-05 23:25 | 33.06621 | 118.78512 | 38938 ft | 538 kts | 146° |
| 2026-05-05 23:25 | 33.00479 | 118.83604 | 38934 ft | 538 kts | 146° |
| 2026-05-05 23:26 | 32.94323 | 118.88691 | 38943 ft | 538 kts | 146° |
| 2026-05-05 23:26 | 32.88166 | 118.93773 | 38946 ft | 539 kts | 146° |
| 2026-05-05 23:27 | 32.82029 | 118.98836 | 38952 ft | 539 kts | 146° |
| 2026-05-05 23:27 | 32.75865 | 119.03959 | 38944 ft | 539 kts | 146° |
| 2026-05-05 23:28 | 32.69710 | 119.09071 | 38962 ft | 540 kts | 146° |
| 2026-05-05 23:28 | 32.63578 | 119.14150 | 38937 ft | 540 kts | 146° |
| 2026-05-05 23:29 | 32.57386 | 119.19267 | 38947 ft | 540 kts | 146° |
| 2026-05-05 23:29 | 32.51252 | 119.24329 | 38957 ft | 541 kts | 146° |
| 2026-05-05 23:30 | 32.45069 | 119.29420 | 38951 ft | 541 kts | 145° |
| 2026-05-05 23:30 | 32.38880 | 119.34509 | 38954 ft | 541 kts | 146° |
| 2026-05-05 23:31 | 32.32693 | 119.39587 | 38963 ft | 542 kts | 145° |
| 2026-05-05 23:31 | 32.26521 | 119.44645 | 38948 ft | 542 kts | 145° |
| 2026-05-05 23:32 | 32.20322 | 119.49717 | 38967 ft | 542 kts | 145° |
| 2026-05-05 23:32 | 32.14116 | 119.54786 | 38968 ft | 541 kts | 145° |
| 2026-05-05 23:33 | 32.07937 | 119.59826 | 38962 ft | 541 kts | 145° |
| 2026-05-05 23:33 | 32.01736 | 119.64876 | 38961 ft | 541 kts | 145° |
| 2026-05-05 23:34 | 31.95796 | 119.70274 | 38963 ft | 540 kts | 135° |
| 2026-05-05 23:34 | 31.90745 | 119.76803 | 38972 ft | 537 kts | 123° |
| 2026-05-05 23:35 | 31.88590 | 119.80420 | 38653 ft | 541 kts | 121° |
| 2026-05-05 23:35 | 31.86498 | 119.84105 | 37835 ft | 546 kts | 120° |
| 2026-05-05 23:35 | 31.84405 | 119.87834 | 37115 ft | 543 kts | 120° |
| 2026-05-05 23:35 | 31.82335 | 119.91504 | 36374 ft | 541 kts | 120° |
| 2026-05-05 23:36 | 31.80235 | 119.95188 | 35615 ft | 539 kts | 120° |
| 2026-05-05 23:36 | 31.78116 | 119.98871 | 34748 ft | 540 kts | 120° |
| 2026-05-05 23:36 | 31.75999 | 120.02525 | 33826 ft | 541 kts | 120° |
| 2026-05-05 23:36 | 31.73898 | 120.06143 | 32795 ft | 542 kts | 120° |
| 2026-05-05 23:37 | 31.71779 | 120.09787 | 31792 ft | 541 kts | 120° |
| 2026-05-05 23:37 | 31.69647 | 120.13452 | 30772 ft | 541 kts | 120° |
| 2026-05-05 23:37 | 31.67517 | 120.17112 | 29795 ft | 539 kts | 120° |
| 2026-05-05 23:37 | 31.65413 | 120.20725 | 29024 ft | 530 kts | 121° |
| 2026-05-05 23:38 | 31.63365 | 120.24241 | 28322 ft | 522 kts | 121° |
| 2026-05-05 23:38 | 31.61325 | 120.27741 | 27639 ft | 514 kts | 121° |
| 2026-05-05 23:38 | 31.59326 | 120.31195 | 26966 ft | 507 kts | 120° |
| 2026-05-05 23:38 | 31.57743 | 120.34787 | 26313 ft | 495 kts | 108° |
| 2026-05-05 23:39 | 31.56619 | 120.38596 | 25674 ft | 487 kts | 104° |
| 2026-05-05 23:39 | 31.55625 | 120.42344 | 25048 ft | 481 kts | 104° |
| 2026-05-05 23:39 | 31.54633 | 120.46093 | 24419 ft | 477 kts | 105° |
| 2026-05-05 23:39 | 31.53633 | 120.49737 | 23792 ft | 474 kts | 106° |
| 2026-05-05 23:40 | 31.52590 | 120.53394 | 23074 ft | 471 kts | 107° |
| 2026-05-05 23:40 | 31.51526 | 120.57032 | 22403 ft | 466 kts | 107° |
| 2026-05-05 23:40 | 31.50466 | 120.60608 | 21784 ft | 461 kts | 108° |
| 2026-05-05 23:40 | 31.49416 | 120.64139 | 21177 ft | 456 kts | 108° |
| 2026-05-05 23:41 | 31.48390 | 120.67593 | 20581 ft | 451 kts | 108° |
| 2026-05-05 23:41 | 31.47364 | 120.71053 | 19988 ft | 447 kts | 108° |
| 2026-05-05 23:41 | 31.46350 | 120.74476 | 19408 ft | 443 kts | 108° |
| 2026-05-05 23:41 | 31.45340 | 120.77882 | 18816 ft | 439 kts | 108° |
| 2026-05-05 23:42 | 31.44327 | 120.81248 | 18212 ft | 436 kts | 108° |
| 2026-05-05 23:42 | 31.43305 | 120.84538 | 17565 ft | 432 kts | 109° |
| 2026-05-05 23:42 | 31.42271 | 120.87839 | 16954 ft | 428 kts | 109° |
| 2026-05-05 23:42 | 31.41251 | 120.91099 | 16375 ft | 424 kts | 109° |
| 2026-05-05 23:43 | 31.40246 | 120.94327 | 15811 ft | 421 kts | 109° |
| 2026-05-05 23:43 | 31.39259 | 120.97525 | 15362 ft | 413 kts | 108° |
| 2026-05-05 23:43 | 31.38307 | 121.00664 | 14962 ft | 407 kts | 108° |
| 2026-05-05 23:43 | 31.37367 | 121.03769 | 14573 ft | 402 kts | 108° |
| 2026-05-05 23:44 | 31.36433 | 121.06848 | 14184 ft | 400 kts | 109° |
| 2026-05-05 23:44 | 31.35499 | 121.09912 | 13787 ft | 399 kts | 109° |
| 2026-05-05 23:44 | 31.34584 | 121.12927 | 13361 ft | 397 kts | 109° |
| 2026-05-05 23:44 | 31.33672 | 121.15963 | 12954 ft | 395 kts | 109° |
| 2026-05-05 23:45 | 31.32765 | 121.18991 | 12549 ft | 392 kts | 109° |
| 2026-05-05 23:45 | 31.31862 | 121.22001 | 12187 ft | 390 kts | 109° |
| 2026-05-05 23:45 | 31.30968 | 121.24974 | 11815 ft | 386 kts | 109° |
| 2026-05-05 23:45 | 31.30086 | 121.27910 | 11430 ft | 378 kts | 109° |
| 2026-05-05 23:46 | 31.29223 | 121.30772 | 11061 ft | 370 kts | 109° |
| 2026-05-05 23:46 | 31.28376 | 121.33581 | 10694 ft | 362 kts | 110° |
| 2026-05-05 23:46 | 31.27551 | 121.36306 | 10350 ft | 355 kts | 110° |
| 2026-05-05 23:46 | 31.26742 | 121.38972 | 10015 ft | 349 kts | 110° |
| 2026-05-05 23:47 | 31.25941 | 121.41608 | 9783 ft | 338 kts | 110° |
| 2026-05-05 23:47 | 31.25165 | 121.44161 | 9609 ft | 327 kts | 110° |
| 2026-05-05 23:47 | 31.24419 | 121.46609 | 9500 ft | 313 kts | 110° |
| 2026-05-05 23:47 | 31.23703 | 121.48962 | 9409 ft | 300 kts | 110° |
| 2026-05-05 23:48 | 31.23021 | 121.51222 | 9219 ft | 289 kts | 108° |
| 2026-05-05 23:48 | 31.22812 | 121.53520 | 8778 ft | 287 kts | 81° |
| 2026-05-05 23:48 | 31.23326 | 121.55739 | 8419 ft | 280 kts | 72° |
| 2026-05-05 23:48 | 31.23932 | 121.57898 | 8075 ft | 277 kts | 71° |
| 2026-05-05 23:49 | 31.24806 | 121.59860 | 7633 ft | 274 kts | 47° |
| 2026-05-05 23:49 | 31.26355 | 121.61116 | 7249 ft | 272 kts | 20° |
| 2026-05-05 23:49 | 31.28186 | 121.61468 | 6919 ft | 270 kts | 358° |
| 2026-05-05 23:49 | 31.30027 | 121.60994 | 6529 ft | 269 kts | 342° |
| 2026-05-05 23:50 | 31.31803 | 121.60281 | 6195 ft | 269 kts | 342° |
| 2026-05-05 23:50 | 31.33562 | 121.59595 | 5878 ft | 266 kts | 342° |
| 2026-05-05 23:50 | 31.35315 | 121.58920 | 5587 ft | 264 kts | 342° |
| 2026-05-05 23:50 | 31.37080 | 121.58353 | 5338 ft | 263 kts | 356° |
| 2026-05-05 23:51 | 31.38846 | 121.58689 | 5097 ft | 263 kts | 27° |
| 2026-05-05 23:51 | 31.40233 | 121.60023 | 4863 ft | 260 kts | 55° |
| 2026-05-05 23:51 | 31.40975 | 121.61922 | 4623 ft | 256 kts | 77° |
| 2026-05-05 23:51 | 31.41360 | 121.63963 | 4384 ft | 256 kts | 78° |
| 2026-05-05 23:52 | 31.41535 | 121.66012 | 4112 ft | 254 kts | 99° |
| 2026-05-05 23:52 | 31.40868 | 121.67898 | 3863 ft | 252 kts | 130° |
| 2026-05-05 23:52 | 31.39489 | 121.69115 | 3641 ft | 249 kts | 155° |
| 2026-05-05 23:52 | 31.37882 | 121.69853 | 3396 ft | 247 kts | 161° |
| 2026-05-05 23:53 | 31.36255 | 121.70466 | 3146 ft | 245 kts | 163° |
| 2026-05-05 23:53 | 31.34655 | 121.71057 | 3077 ft | 239 kts | 162° |
| 2026-05-05 23:53 | 31.33093 | 121.71645 | 3026 ft | 240 kts | 162° |
| 2026-05-05 23:53 | 31.31477 | 121.72259 | 3017 ft | 241 kts | 162° |
| 2026-05-05 23:54 | 31.29894 | 121.72864 | 2951 ft | 245 kts | 162° |
| 2026-05-05 23:54 | 31.28258 | 121.73487 | 2600 ft | 244 kts | 162° |
| 2026-05-05 23:54 | 31.26660 | 121.74096 | 2288 ft | 241 kts | 162° |
| 2026-05-05 23:54 | 31.25090 | 121.74694 | 1988 ft | 236 kts | 162° |
| 2026-05-05 23:55 | 31.23532 | 121.75280 | 1679 ft | 232 kts | 163° |
| 2026-05-05 23:55 | 31.22064 | 121.75835 | 1337 ft | 207 kts | 163° |
| 2026-05-05 23:55 | 31.20817 | 121.76314 | 1109 ft | 175 kts | 161° |
| 2026-05-05 23:55 | 31.19737 | 121.76724 | 882 ft | 150 kts | 161° |
| 2026-05-05 23:56 | 31.18785 | 121.77086 | 700 ft | 141 kts | 162° |
| 2026-05-05 23:56 | 31.17868 | 121.77430 | 559 ft | 138 kts | 161° |
| 2026-05-05 23:56 | 31.16952 | 121.77780 | 358 ft | 141 kts | 162° |
| 2026-05-05 23:56 | 31.16037 | 121.78127 | 161 ft | 138 kts | 161° |
| 2026-05-05 23:57 | 31.15115 | 121.78474 | 36 ft | 136 kts | 161° |
| 2026-05-05 23:57 | 31.14311 | 121.78781 | 27 ft | 95 kts | 162° |
| 2026-05-05 23:57 | 31.13877 | 121.78902 | 26 ft | 52 kts | 181° |
| 2026-05-05 23:57 | 31.13682 | 121.78762 | 27 ft | 31 kts | 262° |
| 2026-05-05 23:58 | 31.13654 | 121.78592 | 27 ft | 10 kts | 252° |
| 2026-05-05 23:58 | 31.13650 | 121.78578 | 27 ft | 0 kts | 252° |